Time;durP1;ratioP1;P1;durP2;ratioP2;P2;SDS_P1;SDS_P2;PMS_P1;PMS_P2;Temp;Humidity;BMP_temperature;BMP_pressure;BME280_temperature;BME280_humidity;BME280_pressure;Samples;Min_cycle;Max_cycle;Signal;HPM_P1;HPM_P2
2022/01/13 00:04:01;;;;;;;11.50;7.10;;;23.90;47.10;;;;;;215207;1293;24290;-56
2022/01/13 00:09:06;;;;;;;11.80;6.60;;;23.90;47.00;;;;;;215165;1296;25545;-56
2022/01/13 00:25:17;;;;;;;12.20;7.00;;;23.90;46.90;;;;;;215031;1293;24314;-57
2022/01/13 00:30:16;;;;;;;11.30;7.00;;;23.90;46.70;;;;;;215153;1294;24342;-56
2022/01/13 00:35:20;;;;;;;11.40;6.20;;;23.90;46.80;;;;;;215071;1294;26452;-57
2022/01/13 00:40:26;;;;;;;14.70;6.80;;;23.90;46.80;;;;;;214923;1296;22611;-57
2022/01/13 00:45:31;;;;;;;10.60;6.30;;;23.90;46.60;;;;;;215072;1296;23641;-54
2022/01/13 00:50:35;;;;;;;9.50;6.00;;;23.90;46.60;;;;;;214951;1296;25123;-56
2022/01/13 01:01:14;;;;;;;10.10;6.00;;;23.90;47.10;;;;;;215360;1293;22774;-54
2022/01/13 01:06:20;;;;;;;9.30;6.00;;;23.90;46.80;;;;;;215088;1296;22625;-55
2022/01/13 01:11:26;;;;;;;12.90;6.70;;;23.90;46.60;;;;;;215003;1296;23748;-59
2022/01/13 01:16:33;;;;;;;9.20;5.50;;;24.00;46.60;;;;;;215029;1294;25454;-57
2022/01/13 01:26:52;;;;;;;9.50;5.60;;;24.00;46.70;;;;;;215124;1294;22655;-57
2022/01/13 01:31:57;;;;;;;8.80;5.20;;;24.00;47.10;;;;;;215170;1296;25848;-54
2022/01/13 01:37:12;;;;;;;9.30;5.40;;;23.90;47.10;;;;;;215166;1297;22572;-56
2022/01/13 01:42:18;;;;;;;9.20;6.00;;;24.00;46.40;;;;;;215300;1293;25558;-56
2022/01/13 01:47:25;;;;;;;9.40;5.70;;;23.90;46.50;;;;;;215070;1293;24334;-56
2022/01/13 01:52:29;;;;;;;8.20;5.40;;;23.90;46.60;;;;;;215275;1293;22592;-56
2022/01/13 01:57:33;;;;;;;7.70;5.40;;;23.90;46.60;;;;;;215230;1296;24543;-56
2022/01/13 02:02:37;;;;;;;10.50;5.20;;;23.90;46.40;;;;;;215101;1299;22624;-58
2022/01/13 02:07:41;;;;;;;8.40;5.70;;;23.90;46.50;;;;;;215174;1297;22661;-57
2022/01/13 02:12:49;;;;;;;7.50;5.10;;;23.90;46.50;;;;;;215066;1294;25505;-57
2022/01/13 02:17:54;;;;;;;7.40;5.10;;;23.90;46.60;;;;;;215248;1294;24264;-56
2022/01/13 02:23:00;;;;;;;9.40;5.10;;;23.90;46.40;;;;;;215059;1297;25668;-57
2022/01/13 02:28:04;;;;;;;6.40;4.60;;;23.90;46.80;;;;;;215000;1298;25643;-57
2022/01/13 02:33:07;;;;;;;8.10;4.90;;;23.90;46.20;;;;;;215178;1296;24356;-56
2022/01/13 02:38:12;;;;;;;7.00;4.50;;;23.90;46.50;;;;;;215226;1293;24255;-56
2022/01/13 02:43:15;;;;;;;8.20;4.70;;;23.90;46.30;;;;;;215280;1298;22604;-58
2022/01/13 02:48:27;;;;;;;6.60;4.30;;;23.90;46.20;;;;;;215039;1294;22619;-56
2022/01/13 02:53:31;;;;;;;6.80;4.50;;;23.90;46.30;;;;;;215155;1296;22617;-55
2022/01/13 02:58:35;;;;;;;8.50;4.70;;;23.90;46.20;;;;;;215129;1293;22657;-56
2022/01/13 03:03:40;;;;;;;6.60;4.40;;;23.90;46.10;;;;;;215000;1296;24288;-57
2022/01/13 03:08:47;;;;;;;7.20;4.40;;;24.00;46.10;;;;;;215119;1293;25448;-57
2022/01/13 03:13:51;;;;;;;9.40;4.60;;;24.00;46.20;;;;;;215345;1293;22620;-57
2022/01/13 03:18:56;;;;;;;6.80;4.80;;;24.00;45.60;;;;;;215532;1293;22730;-58
2022/01/13 03:24:02;;;;;;;6.00;4.40;;;24.00;46.00;;;;;;215275;1296;24328;-58
2022/01/13 03:34:13;;;;;;;6.50;4.50;;;24.00;45.40;;;;;;215522;1293;22608;-57
2022/01/13 03:39:16;;;;;;;7.20;4.10;;;23.90;46.00;;;;;;214981;1293;22612;-56
2022/01/13 03:44:27;;;;;;;6.30;4.00;;;23.90;45.80;;;;;;215254;1296;22612;-57
2022/01/13 03:49:32;;;;;;;5.70;4.10;;;23.90;46.10;;;;;;215595;1293;23895;-57
2022/01/13 03:55:11;;;;;;;5.70;3.80;;;23.90;46.00;;;;;;215147;1296;22572;-56
2022/01/13 04:00:53;;;;;;;5.60;3.80;;;23.90;46.00;;;;;;215006;1295;22570;-55
2022/01/13 04:06:12;;;;;;;7.80;3.80;;;23.90;46.10;;;;;;215288;1293;24457;-56
2022/01/13 04:11:22;;;;;;;6.00;4.00;;;23.90;46.10;;;;;;215192;1293;26548;-57
2022/01/13 04:16:31;;;;;;;8.10;4.00;;;23.90;46.00;;;;;;215165;1296;26696;-56
2022/01/13 04:21:39;;;;;;;5.50;3.70;;;23.90;46.00;;;;;;215185;1297;22590;-58
2022/01/13 04:26:44;;;;;;;5.80;3.80;;;23.80;45.80;;;;;;215048;1296;22707;-57
2022/01/13 04:31:53;;;;;;;5.60;3.70;;;23.90;46.00;;;;;;215205;1294;25570;-58
2022/01/13 04:37:04;;;;;;;6.30;3.60;;;23.80;46.40;;;;;;215226;1293;24226;-57
2022/01/13 04:42:13;;;;;;;5.60;4.00;;;23.80;45.80;;;;;;215166;1295;24314;-55
2022/01/13 04:47:17;;;;;;;4.80;3.30;;;23.90;45.80;;;;;;215048;1293;22749;-55
2022/01/13 04:52:22;;;;;;;5.80;3.90;;;23.90;45.90;;;;;;215150;1296;24296;-56
2022/01/13 04:57:28;;;;;;;6.20;3.90;;;23.90;45.70;;;;;;215366;1294;25299;-56
2022/01/13 05:02:32;;;;;;;5.30;3.40;;;23.90;45.50;;;;;;215242;1296;22607;-53
2022/01/13 05:07:39;;;;;;;6.80;3.80;;;24.00;45.50;;;;;;215208;1293;25331;-57
2022/01/13 05:12:46;;;;;;;4.50;3.20;;;24.00;45.40;;;;;;215398;1293;25390;-56
2022/01/13 05:22:59;;;;;;;5.70;3.20;;;23.90;45.40;;;;;;215306;1293;24250;-56
2022/01/13 05:28:03;;;;;;;5.80;3.60;;;23.90;45.40;;;;;;215100;1296;25675;-58
2022/01/13 05:33:08;;;;;;;5.40;3.40;;;23.90;45.70;;;;;;215451;1293;24250;-56
2022/01/13 05:38:12;;;;;;;4.30;3.30;;;23.90;45.80;;;;;;215333;1293;22830;-56
2022/01/13 05:43:17;;;;;;;5.00;3.20;;;23.90;46.10;;;;;;215212;1293;23144;-58
2022/01/13 05:48:21;;;;;;;5.10;3.40;;;23.90;45.80;;;;;;215409;1293;22648;-57
2022/01/13 05:53:26;;;;;;;5.70;3.30;;;23.80;46.00;;;;;;215509;1293;215738;-58
2022/01/13 05:58:31;;;;;;;4.60;3.30;;;23.90;46.10;;;;;;215451;1293;22764;-57
2022/01/13 06:03:35;;;;;;;7.00;3.30;;;23.80;45.60;;;;;;215206;1294;22615;-58
2022/01/13 06:08:39;;;;;;;4.00;3.00;;;23.80;46.00;;;;;;215470;1293;23366;-56
2022/01/13 06:13:42;;;;;;;3.80;3.10;;;23.80;45.70;;;;;;215020;1296;23211;-57
2022/01/13 06:18:46;;;;;;;4.50;3.00;;;23.80;45.60;;;;;;215147;1293;24351;-57
2022/01/13 06:23:50;;;;;;;5.60;3.20;;;23.80;45.60;;;;;;215156;1296;22590;-56
2022/01/13 06:28:53;;;;;;;3.80;2.60;;;23.80;45.60;;;;;;215226;1293;27076;-56
2022/01/13 06:33:57;;;;;;;4.10;3.30;;;23.80;45.40;;;;;;215125;1296;22707;-57
2022/01/13 06:39:00;;;;;;;5.20;3.30;;;23.80;45.70;;;;;;215454;1293;24226;-57
2022/01/13 06:44:05;;;;;;;5.00;3.50;;;23.90;45.80;;;;;;214860;1293;24296;-56
2022/01/13 06:49:09;;;;;;;5.80;3.20;;;23.90;45.50;;;;;;214882;1293;23329;-55
2022/01/13 06:54:12;;;;;;;4.90;2.80;;;24.00;45.60;;;;;;215098;1293;24215;-55
2022/01/13 06:59:16;;;;;;;4.30;3.00;;;24.00;45.70;;;;;;215081;1296;24354;-56
2022/01/13 07:04:24;;;;;;;4.90;3.10;;;23.90;45.80;;;;;;215077;1295;22586;-55
2022/01/13 07:09:34;;;;;;;7.90;2.90;;;24.00;45.90;;;;;;215355;1293;22581;-57
2022/01/13 07:14:38;;;;;;;7.50;2.80;;;24.00;46.20;;;;;;215287;1293;22844;-58
2022/01/13 07:19:45;;;;;;;8.10;3.40;;;24.00;46.80;;;;;;215326;1293;22595;-57
2022/01/13 07:24:49;;;;;;;6.10;3.20;;;24.00;46.60;;;;;;215482;1293;23269;-58
2022/01/13 07:29:53;;;;;;;10.50;3.40;;;23.90;46.50;;;;;;215437;1293;22707;-54
2022/01/13 07:34:56;;;;;;;7.20;3.00;;;23.90;47.20;;;;;;215256;1293;24356;-57
2022/01/13 07:40:00;;;;;;;7.20;3.30;;;23.90;47.30;;;;;;215325;1293;22622;-57
2022/01/13 07:45:04;;;;;;;8.90;3.10;;;24.00;47.60;;;;;;215222;1293;25507;-57
2022/01/13 07:50:09;;;;;;;6.50;3.00;;;24.10;47.40;;;;;;215457;1293;25352;-57
2022/01/13 07:55:13;;;;;;;11.10;3.40;;;24.00;47.60;;;;;;215600;1293;24249;-56
2022/01/13 08:00:17;;;;;;;14.80;3.40;;;24.00;47.90;;;;;;215301;1293;24285;-56
2022/01/13 08:05:20;;;;;;;12.70;3.40;;;24.00;47.70;;;;;;215413;1293;24259;-55
2022/01/13 08:10:24;;;;;;;8.80;3.30;;;23.90;47.50;;;;;;215159;1292;22598;-55
2022/01/13 08:15:29;;;;;;;10.90;3.20;;;23.80;46.60;;;;;;222814;1292;22218;-55
2022/01/13 08:20:33;;;;;;;8.10;3.50;;;23.80;46.80;;;;;;215525;1296;24484;-58
2022/01/13 08:25:40;;;;;;;9.80;3.40;;;23.80;46.70;;;;;;215277;1296;23254;-55
2022/01/13 08:30:50;;;;;;;6.80;3.30;;;23.80;46.50;;;;;;215311;1293;22575;-54
2022/01/13 08:35:57;;;;;;;7.90;2.70;;;23.80;46.50;;;;;;215532;1293;22719;-53
2022/01/13 08:41:02;;;;;;;8.30;2.80;;;23.90;46.50;;;;;;215337;1293;22706;-55
2022/01/13 08:46:06;;;;;;;6.40;2.60;;;23.90;46.50;;;;;;215407;1293;22656;-57
2022/01/13 08:51:10;;;;;;;5.40;2.90;;;23.90;46.60;;;;;;215230;1295;23803;-54
2022/01/13 08:56:15;;;;;;;4.50;2.80;;;23.90;46.30;;;;;;215183;1293;24389;-52
2022/01/13 09:01:18;;;;;;;6.40;2.90;;;23.90;46.20;;;;;;215244;1296;22654;-55
2022/01/13 09:06:22;;;;;;;5.60;2.60;;;23.90;46.30;;;;;;215372;1293;22595;-53
2022/01/13 09:11:25;;;;;;;5.30;3.10;;;23.90;46.40;;;;;;215237;1293;24456;-53
2022/01/13 09:16:40;;;;;;;4.00;2.70;;;23.90;46.30;;;;;;215194;1294;24301;-52
2022/01/13 09:21:46;;;;;;;6.20;2.70;;;23.90;46.30;;;;;;215293;1293;22911;-55
2022/01/13 09:26:49;;;;;;;4.80;2.10;;;23.90;46.40;;;;;;215190;1295;24075;-55
2022/01/13 09:31:53;;;;;;;4.50;2.70;;;23.90;45.80;;;;;;215322;1293;22598;-56
2022/01/13 09:36:57;;;;;;;6.30;2.70;;;23.90;45.90;;;;;;215295;1293;22575;-55
2022/01/13 09:42:03;;;;;;;6.20;2.70;;;23.90;46.10;;;;;;215032;1296;26612;-54
2022/01/13 09:47:06;;;;;;;4.60;2.60;;;23.90;46.40;;;;;;215439;1293;22588;-56
2022/01/13 09:52:10;;;;;;;6.20;2.60;;;23.90;45.80;;;;;;215138;1293;24268;-56
2022/01/13 09:57:14;;;;;;;3.70;2.40;;;23.90;46.00;;;;;;214984;1296;22598;-51
2022/01/13 10:02:17;;;;;;;4.30;2.70;;;23.90;45.90;;;;;;215152;1293;22615;-54
2022/01/13 10:07:31;;;;;;;4.90;2.60;;;23.90;45.90;;;;;;215254;1293;22650;-56
2022/01/13 10:13:11;;;;;;;5.80;2.50;;;23.90;45.90;;;;;;215191;1296;22595;-54
2022/01/13 10:18:14;;;;;;;4.20;2.70;;;23.90;46.00;;;;;;215379;1293;24553;-57
2022/01/13 10:23:18;;;;;;;6.20;2.90;;;23.90;45.90;;;;;;215235;1293;22585;-56
2022/01/13 10:28:23;;;;;;;4.70;2.90;;;24.10;46.20;;;;;;215202;1293;26814;-55
2022/01/13 10:33:29;;;;;;;3.40;2.40;;;24.10;47.00;;;;;;215507;1293;24446;-53
2022/01/13 10:38:56;;;;;;;4.90;2.50;;;24.10;46.60;;;;;;215108;1296;22580;-54
2022/01/13 10:44:18;;;;;;;4.30;2.70;;;24.10;47.00;;;;;;215825;1293;22591;-55
2022/01/13 10:49:31;;;;;;;4.90;2.70;;;24.10;47.10;;;;;;215482;1293;25375;-54
2022/01/13 10:54:34;;;;;;;4.30;2.40;;;24.10;48.00;;;;;;215559;1294;22578;-54
2022/01/13 10:59:38;;;;;;;5.80;2.60;;;24.00;47.80;;;;;;215308;1293;24264;-52
2022/01/13 11:04:41;;;;;;;6.40;2.80;;;24.00;48.20;;;;;;215294;1293;25416;-52
2022/01/13 11:10:06;;;;;;;4.90;2.60;;;23.90;49.00;;;;;;215385;1293;22597;-56
2022/01/13 11:15:17;;;;;;;4.60;2.50;;;23.80;48.70;;;;;;215428;1293;23114;-57
2022/01/13 11:20:23;;;;;;;4.20;2.40;;;23.60;48.80;;;;;;215423;1295;26733;-57
2022/01/13 11:25:34;;;;;;;3.90;2.40;;;23.50;48.80;;;;;;215433;1293;22573;-54
2022/01/13 11:30:44;;;;;;;3.60;2.30;;;23.40;49.00;;;;;;215363;1293;24265;-56
2022/01/13 11:35:57;;;;;;;4.30;2.50;;;23.30;49.00;;;;;;215232;1296;24320;-55
2022/01/13 11:41:15;;;;;;;3.80;2.40;;;23.20;49.10;;;;;;215329;1293;26866;-56
2022/01/13 11:46:26;;;;;;;3.30;2.40;;;23.20;49.10;;;;;;215423;1293;22594;-53
2022/01/13 11:51:57;;;;;;;3.50;2.40;;;23.00;49.00;;;;;;215176;1296;22649;-55
2022/01/13 11:57:22;;;;;;;4.40;2.40;;;23.00;49.30;;;;;;215417;1293;26554;-56
2022/01/13 12:02:39;;;;;;;3.80;2.50;;;23.00;48.90;;;;;;215184;1293;24043;-56
2022/01/13 12:07:45;;;;;;;3.60;2.40;;;22.90;49.30;;;;;;215411;1293;22604;-55
2022/01/13 12:12:49;;;;;;;4.20;2.20;;;22.90;49.50;;;;;;215421;1296;22739;-53
2022/01/13 12:17:58;;;;;;;3.90;2.50;;;22.80;49.50;;;;;;215612;1293;22598;-55
2022/01/13 12:23:14;;;;;;;4.10;2.30;;;22.70;49.30;;;;;;215402;1293;22605;-57
2022/01/13 12:28:21;;;;;;;3.80;2.40;;;22.70;49.40;;;;;;215183;1296;24352;-56
2022/01/13 12:33:32;;;;;;;5.20;2.70;;;22.60;49.40;;;;;;215361;1293;24253;-55
2022/01/13 12:38:36;;;;;;;4.50;2.60;;;22.70;49.20;;;;;;215257;1293;25544;-56
2022/01/13 12:48:51;;;;;;;3.40;2.20;;;23.30;47.60;;;;;;215226;1293;26197;-54
2022/01/13 12:53:55;;;;;;;3.30;2.10;;;23.50;48.00;;;;;;215109;1293;22577;-51
2022/01/13 12:59:04;;;;;;;4.20;2.60;;;23.60;47.10;;;;;;215344;1293;24250;-55
2022/01/13 13:04:12;;;;;;;4.20;2.30;;;23.60;46.80;;;;;;215446;1293;22661;-53
2022/01/13 13:09:19;;;;;;;3.00;1.90;;;23.70;46.80;;;;;;215345;1292;25362;-56
2022/01/13 13:20:07;;;;;;;3.60;2.30;;;23.80;46.60;;;;;;215277;1293;24294;-57
2022/01/13 13:25:11;;;;;;;4.20;2.20;;;23.70;46.60;;;;;;215224;1296;25358;-57
2022/01/13 13:30:14;;;;;;;3.80;2.30;;;23.80;47.10;;;;;;215997;1292;24285;-53
2022/01/13 13:35:38;;;;;;;4.00;2.20;;;23.80;46.40;;;;;;215337;1293;22607;-55
2022/01/13 13:40:45;;;;;;;3.60;2.40;;;23.80;46.40;;;;;;215360;1293;22746;-54
2022/01/13 13:45:59;;;;;;;3.80;2.30;;;23.80;46.30;;;;;;215377;1296;22594;-52
2022/01/13 13:51:06;;;;;;;3.60;2.30;;;23.80;46.10;;;;;;215380;1293;22668;-56
2022/01/13 13:56:10;;;;;;;5.70;2.10;;;23.80;46.30;;;;;;215502;1296;22619;-56
2022/01/13 14:01:16;;;;;;;3.90;2.20;;;23.70;45.80;;;;;;215182;1293;23860;-56
2022/01/13 14:06:43;;;;;;;3.80;2.40;;;23.70;46.10;;;;;;222761;1293;22438;-53
2022/01/13 14:11:48;;;;;;;3.90;2.30;;;23.70;45.70;;;;;;222824;1292;22418;-56
2022/01/13 14:16:53;;;;;;;3.90;2.30;;;23.70;45.60;;;;;;215572;1293;25278;-56
2022/01/13 14:21:58;;;;;;;4.90;2.20;;;23.70;45.70;;;;;;215511;1293;24337;-55
2022/01/13 14:27:07;;;;;;;3.30;2.30;;;23.70;45.70;;;;;;215699;1293;24381;-57
2022/01/13 14:32:30;;;;;;;4.20;2.40;;;23.70;46.30;;;;;;215290;1293;22604;-53
2022/01/13 14:37:34;;;;;;;3.60;2.50;;;23.70;45.60;;;;;;215466;1294;22704;-53
2022/01/13 14:42:39;;;;;;;3.50;2.10;;;23.70;45.60;;;;;;215293;1296;22587;-55
2022/01/13 14:47:44;;;;;;;3.00;1.90;;;23.70;45.50;;;;;;215406;1296;24224;-57
2022/01/13 14:52:52;;;;;;;3.70;2.20;;;23.80;45.20;;;;;;215143;1293;24256;-57
2022/01/13 14:57:55;;;;;;;3.80;1.90;;;23.90;45.10;;;;;;215301;1293;25404;-57
2022/01/13 15:02:59;;;;;;;2.90;2.00;;;23.90;44.80;;;;;;215313;1296;22580;-55
2022/01/13 15:08:02;;;;;;;3.90;2.10;;;23.80;44.90;;;;;;215062;1293;22619;-54
2022/01/13 15:13:06;;;;;;;4.30;2.30;;;23.80;45.00;;;;;;215169;1296;22747;-58
2022/01/13 15:18:15;;;;;;;4.10;2.40;;;23.80;45.00;;;;;;215311;1293;22582;-52
2022/01/13 15:23:19;;;;;;;3.00;2.00;;;23.70;45.10;;;;;;215314;1296;22615;-56
2022/01/13 15:28:23;;;;;;;5.20;2.20;;;23.70;45.10;;;;;;215495;1293;25408;-55
2022/01/13 15:33:27;;;;;;;3.10;2.00;;;23.70;45.40;;;;;;215235;1296;24262;-56
2022/01/13 15:38:30;;;;;;;3.30;2.40;;;23.70;45.10;;;;;;215125;1293;24251;-57
2022/01/13 15:43:34;;;;;;;3.30;2.10;;;23.70;45.10;;;;;;215258;1293;22656;-56
2022/01/13 15:48:38;;;;;;;3.10;2.00;;;23.70;45.10;;;;;;215069;1293;22572;-55
2022/01/13 15:53:46;;;;;;;3.90;2.30;;;23.70;45.00;;;;;;215523;1293;22599;-53
2022/01/13 15:58:50;;;;;;;3.00;2.10;;;23.70;45.10;;;;;;215402;1296;22598;-51
2022/01/13 16:03:53;;;;;;;3.10;2.00;;;23.60;45.00;;;;;;215375;1293;22646;-53
2022/01/13 16:08:57;;;;;;;3.20;2.10;;;23.60;45.00;;;;;;215432;1293;24252;-56
2022/01/13 16:14:04;;;;;;;3.70;2.00;;;23.60;45.00;;;;;;215199;1293;24826;-56
2022/01/13 16:19:11;;;;;;;2.60;1.90;;;23.60;45.00;;;;;;215146;1296;25374;-58
2022/01/13 16:24:16;;;;;;;7.90;2.30;;;23.70;45.20;;;;;;215163;1296;23550;-55
2022/01/13 16:29:50;;;;;;;5.20;2.50;;;23.70;45.00;;;;;;215060;1293;22657;-55
2022/01/13 16:36:11;;;;;;;6.20;2.20;;;23.80;44.90;;;;;;214664;1293;22624;-58
2022/01/13 16:42:01;;;;;;;4.10;2.40;;;23.80;44.80;;;;;;214917;1293;25362;-59
2022/01/13 16:48:04;;;;;;;9.80;3.10;;;23.90;44.90;;;;;;213977;1293;23069;-60
2022/01/13 16:53:45;;;;;;;14.00;3.50;;;24.10;44.90;;;;;;214324;1296;24481;-56
2022/01/13 16:59:24;;;;;;;14.60;5.10;;;24.10;45.60;;;;;;222468;1293;22517;-58
2022/01/13 17:04:39;;;;;;;12.00;4.90;;;24.10;46.30;;;;;;215192;1293;25289;-59
2022/01/13 17:10:23;;;;;;;;;;;;;;;;;;;;;
2022/01/13 17:16:41;;;;;;;;;;;;;;;;;;;;;
2022/01/13 17:22:24;;;;;;;13.60;4.80;;;24.20;50.40;;;;;;221611;1293;24743;-57
2022/01/13 17:28:23;;;;;;;7.20;3.80;;;24.20;51.00;;;;;;214731;1293;24449;-55
2022/01/13 17:34:03;;;;;;;10.80;4.00;;;24.20;51.10;;;;;;215082;1293;24336;-56
2022/01/13 17:39:50;;;;;;;10.80;4.10;;;24.10;50.80;;;;;;215139;1293;22621;-55
2022/01/13 17:45:28;;;;;;;14.30;3.50;;;24.10;50.30;;;;;;215281;1293;22592;-57
2022/01/13 17:51:13;;;;;;;9.70;3.80;;;23.90;50.50;;;;;;215052;1296;24291;-59
2022/01/13 17:56:33;;;;;;;5.60;3.30;;;23.80;50.60;;;;;;210003;1293;6858999;-59
2022/01/13 18:02:45;;;;;;;8.50;4.00;;;23.60;51.10;;;;;;218080;1293;23023;-57
2022/01/13 18:08:27;;;;;;;11.70;4.00;;;23.50;52.10;;;;;;215042;1293;22588;-58
2022/01/13 18:14:06;;;;;;;8.50;4.30;;;23.40;51.70;;;;;;215438;1296;25617;-61
2022/01/13 18:19:38;;;;;;;8.40;3.00;;;23.30;50.90;;;;;;215436;1293;25710;-57
2022/01/13 18:25:40;;;;;;;10.00;3.80;;;23.10;50.50;;;;;;215133;1293;25296;-59
2022/01/13 18:30:58;;;;;;;13.40;3.80;;;23.10;50.50;;;;;;215153;1293;25351;-59
2022/01/13 18:36:32;;;;;;;6.40;3.80;;;23.10;50.20;;;;;;215449;1293;22604;-59
2022/01/13 18:42:36;;;;;;;5.60;3.40;;;22.90;50.20;;;;;;214947;1296;22851;-61
2022/01/13 18:48:22;;;;;;;8.40;3.50;;;22.70;50.10;;;;;;215530;1294;25601;-59
2022/01/13 18:54:03;;;;;;;5.50;3.10;;;22.70;49.90;;;;;;215386;1294;25469;-58
2022/01/13 18:59:27;;;;;;;10.20;3.60;;;22.60;50.10;;;;;;215111;1293;22579;-61
2022/01/13 19:04:31;;;;;;;6.00;3.40;;;22.50;49.70;;;;;;215185;1293;22643;-61
2022/01/13 19:09:54;;;;;;;6.10;3.40;;;22.50;49.80;;;;;;214604;1296;24569;-59
2022/01/13 19:15:25;;;;;;;6.70;3.60;;;22.40;49.50;;;;;;215495;1293;22583;-61
2022/01/13 19:20:37;;;;;;;6.40;3.60;;;22.60;48.90;;;;;;215156;1294;22573;-59
2022/01/13 19:25:54;;;;;;;8.00;3.90;;;22.90;48.20;;;;;;215365;1293;22580;-61
2022/01/13 19:31:16;;;;;;;7.70;3.40;;;23.20;48.10;;;;;;215149;1293;25492;-55
2022/01/13 19:36:34;;;;;;;8.30;3.50;;;23.40;47.10;;;;;;215523;1293;22690;-54
2022/01/13 19:41:45;;;;;;;9.30;3.60;;;23.60;47.50;;;;;;215170;1293;22636;-53
2022/01/13 19:46:52;;;;;;;7.40;3.20;;;23.70;46.60;;;;;;215035;1296;24114;-52
2022/01/13 19:52:01;;;;;;;6.40;3.40;;;23.60;46.60;;;;;;215079;1294;23508;-53
2022/01/13 19:57:16;;;;;;;8.40;3.30;;;23.60;46.90;;;;;;215247;1293;25713;-54
2022/01/13 20:02:38;;;;;;;7.90;4.00;;;23.70;47.00;;;;;;215466;1293;22574;-56
2022/01/13 20:07:58;;;;;;;9.20;3.40;;;23.80;46.90;;;;;;215065;1296;24261;-55
2022/01/13 20:13:08;;;;;;;6.60;3.00;;;23.80;47.10;;;;;;215940;1296;26444;-53
2022/01/13 20:18:13;;;;;;;11.50;3.40;;;23.80;47.40;;;;;;215604;1293;25367;-52
2022/01/13 20:23:22;;;;;;;10.50;3.40;;;23.90;47.60;;;;;;215532;1294;22754;-52
2022/01/13 20:28:30;;;;;;;7.50;3.70;;;23.90;47.30;;;;;;215638;1293;22636;-52
2022/01/13 20:33:41;;;;;;;7.90;3.70;;;23.90;48.00;;;;;;215354;1294;26985;-55
2022/01/13 20:38:55;;;;;;;14.80;3.50;;;23.90;47.30;;;;;;215329;1293;22642;-59
2022/01/13 20:44:03;;;;;;;12.50;3.20;;;23.90;48.00;;;;;;215131;1296;23282;-61
2022/01/13 20:49:08;;;;;;;13.60;3.60;;;23.70;48.60;;;;;;215407;1296;22604;-61
2022/01/13 20:54:17;;;;;;;8.80;3.20;;;23.60;48.50;;;;;;219352;1281;25480;-54
2022/01/13 20:59:23;;;;;;;9.00;3.40;;;23.60;48.90;;;;;;214739;1293;23138;-56
2022/01/13 21:04:28;;;;;;;9.60;3.50;;;23.50;48.70;;;;;;215096;1293;22586;-57
2022/01/13 21:09:38;;;;;;;8.20;3.60;;;23.30;48.80;;;;;;215131;1293;25022;-56
2022/01/13 21:14:44;;;;;;;8.30;3.70;;;23.30;49.20;;;;;;214981;1293;22612;-55
2022/01/13 21:19:53;;;;;;;9.60;3.80;;;23.20;49.50;;;;;;214920;1295;22664;-56
2022/01/13 21:24:58;;;;;;;8.50;4.10;;;23.10;49.90;;;;;;214680;1296;22577;-55
2022/01/13 21:30:07;;;;;;;14.70;4.80;;;23.00;50.10;;;;;;214817;1295;26519;-56
2022/01/13 21:35:16;;;;;;;9.00;3.70;;;22.80;50.50;;;;;;215260;1293;22603;-55
2022/01/13 21:40:30;;;;;;;12.90;5.00;;;22.70;50.60;;;;;;214849;1296;22860;-55
2022/01/13 21:45:37;;;;;;;16.10;5.10;;;22.70;50.80;;;;;;215252;1293;22611;-55
2022/01/13 21:50:53;;;;;;;10.80;4.20;;;22.60;50.90;;;;;;215143;1293;22644;-55
2022/01/13 21:56:02;;;;;;;12.30;5.10;;;22.60;50.80;;;;;;215046;1296;22605;-53
2022/01/13 22:01:15;;;;;;;19.00;5.90;;;22.60;50.70;;;;;;215133;1293;25571;-56
2022/01/13 22:06:20;;;;;;;13.00;5.30;;;22.50;51.30;;;;;;214972;1293;22649;-54
2022/01/13 22:11:27;;;;;;;15.30;5.30;;;22.50;51.00;;;;;;215115;1294;22575;-56
2022/01/13 22:16:30;;;;;;;19.50;5.40;;;22.50;53.00;;;;;;214735;1293;22797;-54
2022/01/13 22:21:34;;;;;;;13.00;5.50;;;23.00;52.40;;;;;;214776;1294;24395;-55
2022/01/13 22:26:39;;;;;;;12.10;4.90;;;23.30;51.70;;;;;;214886;1296;22835;-55
2022/01/13 22:31:43;;;;;;;15.90;5.20;;;23.60;50.40;;;;;;214776;1294;22772;-56
2022/01/13 22:36:47;;;;;;;13.70;6.00;;;23.70;50.20;;;;;;215149;1295;22768;-54
2022/01/13 22:41:52;;;;;;;14.30;5.30;;;23.80;51.20;;;;;;215179;1296;25422;-56
2022/01/13 22:46:56;;;;;;;17.50;5.40;;;23.80;51.70;;;;;;214985;1293;23366;-56
2022/01/13 22:52:00;;;;;;;15.10;5.60;;;23.80;51.40;;;;;;215103;1296;25388;-54
2022/01/13 22:57:05;;;;;;;11.00;5.00;;;23.90;51.40;;;;;;215053;1296;24541;-52
2022/01/13 23:02:13;;;;;;;13.90;6.00;;;23.80;50.80;;;;;;215209;1296;22707;-56
2022/01/13 23:07:17;;;;;;;14.60;5.80;;;23.90;50.90;;;;;;215155;1293;24368;-55
2022/01/13 23:12:27;;;;;;;14.40;5.50;;;23.90;50.40;;;;;;215183;1295;24271;-58
2022/01/13 23:22:55;;;;;;;10.10;4.70;;;23.80;50.10;;;;;;215227;1296;24447;-57
2022/01/13 23:27:59;;;;;;;12.40;5.30;;;23.90;49.90;;;;;;215232;1293;25549;-54
2022/01/13 23:33:03;;;;;;;14.20;4.90;;;24.00;50.50;;;;;;215187;1294;22650;-55
2022/01/13 23:38:07;;;;;;;11.30;4.50;;;24.10;51.30;;;;;;215084;1297;25820;-57
2022/01/13 23:43:14;;;;;;;12.50;5.60;;;24.00;51.50;;;;;;215209;1296;22625;-55
2022/01/13 23:48:18;;;;;;;11.60;4.80;;;24.00;51.20;;;;;;215219;1296;22627;-57
2022/01/13 23:53:22;;;;;;;12.70;5.60;;;23.90;51.10;;;;;;215076;1298;24347;-56
2022/01/13 23:58:27;;;;;;;13.30;5.40;;;23.90;51.00;;;;;;215181;1293;25392;-56
